createdAt,value
2022-09-05T00:02:30.788Z,3.07
2022-09-05T00:05:02.320Z,2.63
2022-09-05T00:07:58.979Z,2.77
2022-09-05T00:10:37.543Z,3.03
2022-09-05T00:13:25.046Z,3.10
2022-09-05T00:16:05.714Z,2.80
2022-09-05T00:24:17.725Z,2.70
2022-09-05T00:24:24.786Z,3.30
2022-09-05T00:27:57.563Z,3.03
2022-09-05T00:31:08.658Z,2.90
2022-09-05T00:33:26.081Z,3.00
2022-09-05T00:36:05.828Z,2.73
2022-09-05T00:38:36.500Z,3.07
2022-09-05T00:41:02.553Z,2.47
2022-09-05T00:43:31.824Z,2.90
2022-09-05T00:46:05.562Z,3.40
2022-09-05T00:48:29.762Z,3.50
2022-09-05T00:51:14.112Z,3.03
2022-09-05T00:53:46.722Z,3.37
2022-09-05T00:56:37.204Z,3.50
2022-09-05T00:59:26.718Z,3.00
2022-09-05T01:01:56.119Z,2.90
2022-09-05T01:04:56.355Z,2.97
2022-09-05T01:07:38.012Z,3.10
2022-09-05T01:10:04.290Z,3.30
2022-09-05T01:12:48.534Z,2.53
2022-09-05T01:15:25.524Z,3.27
2022-09-05T01:17:57.319Z,3.03
2022-09-05T01:20:31.506Z,3.30
2022-09-05T01:23:09.637Z,3.27
2022-09-05T01:25:36.831Z,3.20
2022-09-05T01:29:13.680Z,3.10
2022-09-05T01:31:22.731Z,2.73
2022-09-05T01:33:46.919Z,2.80
2022-09-05T01:36:24.218Z,3.30
2022-09-05T01:40:11.659Z,3.20
2022-09-05T01:42:06.076Z,3.60
2022-09-05T01:45:09.910Z,3.20
2022-09-05T01:47:50.203Z,2.93
2022-09-05T01:50:53.820Z,3.00
2022-09-05T01:53:48.280Z,3.33
2022-09-05T01:56:30.160Z,4.00
2022-09-05T01:58:58.384Z,3.43
2022-09-05T02:01:36.208Z,3.70
2022-09-05T02:04:19.675Z,3.43
2022-09-05T02:07:15.245Z,3.40
2022-09-05T02:10:07.584Z,3.77
2022-09-05T02:13:02.590Z,3.20
2022-09-05T02:15:59.337Z,2.90
2022-09-05T02:18:30.951Z,3.10
2022-09-05T02:20:58.869Z,3.40
2022-09-05T02:23:42.612Z,2.80
2022-09-05T02:26:19.147Z,2.90
2022-09-05T02:29:00.052Z,3.30
2022-09-05T02:31:27.622Z,3.20
2022-09-05T02:34:01.874Z,3.00
2022-09-05T02:36:49.794Z,3.47
2022-09-05T02:45:06.538Z,3.73
2022-09-05T02:45:06.887Z,2.80
2022-09-05T02:45:40.693Z,3.30
2022-09-05T02:48:16.427Z,3.47
2022-09-05T02:57:25.491Z,3.47
2022-09-05T02:57:39.467Z,4.03
2022-09-05T02:57:42.486Z,3.40
2022-09-05T03:00:11.679Z,3.97
2022-09-05T03:02:54.020Z,3.27
2022-09-05T03:05:41.509Z,3.10
2022-09-05T03:08:22.727Z,3.30
2022-09-05T03:10:54.282Z,3.10
2022-09-05T03:13:57.686Z,3.27
2022-09-05T03:16:44.967Z,3.40
2022-09-05T03:19:31.079Z,3.63
2022-09-05T03:22:08.091Z,3.07
2022-09-05T03:25:12.819Z,3.53
2022-09-05T03:28:13.074Z,3.70
2022-09-05T03:30:45.200Z,3.27
2022-09-05T03:33:40.887Z,3.33
2022-09-05T03:36:27.242Z,4.53
2022-09-05T03:39:02.781Z,3.57
2022-09-05T03:42:01.920Z,3.53
2022-09-05T03:44:57.544Z,3.40
2022-09-05T03:47:45.649Z,3.70
2022-09-05T03:57:04.464Z,3.70
2022-09-05T03:57:21.026Z,3.33
2022-09-05T03:57:25.711Z,3.63
2022-09-05T03:59:09.591Z,4.00
2022-09-05T04:02:22.382Z,3.43
2022-09-05T04:08:14.567Z,3.73
2022-09-05T04:08:26.241Z,3.77
2022-09-05T04:10:32.670Z,3.20
2022-09-05T04:13:17.259Z,3.60
2022-09-05T04:15:45.424Z,3.47
2022-09-05T04:18:32.875Z,3.20
2022-09-05T04:21:20.044Z,3.93
2022-09-05T04:23:50.138Z,3.47
2022-09-05T04:26:39.268Z,4.07
2022-09-05T04:29:26.608Z,4.70
2022-09-05T04:32:15.416Z,3.90
2022-09-05T04:34:51.071Z,3.83
2022-09-05T04:37:37.150Z,5.60
2022-09-05T04:40:34.321Z,4.17
2022-09-05T04:43:00.319Z,4.40
2022-09-05T04:45:24.414Z,4.00
2022-09-05T04:47:52.369Z,3.37
2022-09-05T04:50:20.253Z,3.63
2022-09-05T04:53:16.023Z,3.83
2022-09-05T04:55:50.767Z,4.00
2022-09-05T04:58:29.537Z,4.07
2022-09-05T05:06:04.495Z,4.37
2022-09-05T05:06:19.945Z,4.07
2022-09-05T05:07:10.929Z,4.50
2022-09-05T05:09:44.508Z,4.17
2022-09-05T05:17:56.297Z,3.83
2022-09-05T05:18:08.632Z,4.33
2022-09-05T05:18:39.577Z,4.30
2022-09-05T05:21:00.120Z,4.10
2022-09-05T05:23:39.223Z,3.97
2022-09-05T05:26:04.724Z,4.40
2022-09-05T05:28:46.805Z,4.20
2022-09-05T05:31:12.945Z,4.13
2022-09-05T05:33:38.852Z,4.20
2022-09-05T05:36:03.080Z,4.87
2022-09-05T05:38:32.975Z,4.63
2022-09-05T05:41:09.826Z,5.10
2022-09-05T05:43:45.516Z,4.30
2022-09-05T05:46:12.722Z,4.50
2022-09-05T05:48:38.223Z,4.30
2022-09-05T05:52:00.958Z,4.10
2022-09-05T05:54:42.288Z,4.43
2022-09-05T05:57:32.980Z,4.17
2022-09-05T06:00:04.054Z,4.10
2022-09-05T06:03:24.830Z,4.50
2022-09-05T06:06:08.652Z,4.27
2022-09-05T06:14:26.134Z,4.00
2022-09-05T06:15:01.458Z,4.37
2022-09-05T06:15:10.453Z,4.07
2022-09-05T06:18:07.231Z,4.50
2022-09-05T06:22:06.056Z,3.73
2022-09-05T06:24:07.243Z,4.10
2022-09-05T06:26:51.178Z,4.27
2022-09-05T06:29:48.875Z,4.50
2022-09-05T06:32:58.229Z,5.10
2022-09-05T06:35:41.517Z,4.10
2022-09-05T06:38:34.391Z,5.27
2022-09-05T06:41:20.431Z,4.83
2022-09-05T06:43:57.149Z,5.30
2022-09-05T06:47:23.039Z,4.73
2022-09-05T06:49:38.725Z,4.60
2022-09-05T06:52:29.557Z,5.10
2022-09-05T06:55:37.602Z,4.00
2022-09-05T06:58:14.124Z,4.72
2022-09-05T07:00:47.832Z,4.68
2022-09-05T07:03:27.761Z,4.47
2022-09-05T07:06:04.629Z,4.60
2022-09-05T07:08:37.453Z,4.80
2022-09-05T07:11:15.968Z,4.15
2022-09-05T07:14:00.680Z,4.55
2022-09-05T07:16:37.322Z,4.35
2022-09-05T07:19:14.216Z,4.50
2022-09-05T07:21:49.335Z,4.43
2022-09-05T07:24:39.115Z,4.45
2022-09-05T07:27:00.635Z,5.13
2022-09-05T07:29:32.145Z,4.90
2022-09-05T07:31:55.919Z,4.75
2022-09-05T07:34:22.926Z,4.38
2022-09-05T07:36:48.318Z,4.45
2022-09-05T07:39:28.244Z,4.60
2022-09-05T07:41:54.626Z,5.18
2022-09-05T07:44:23.589Z,4.70
2022-09-05T07:46:48.990Z,4.57
2022-09-05T07:49:18.512Z,4.53
2022-09-05T07:56:49.663Z,4.78
2022-09-05T07:57:00.081Z,4.60
2022-09-05T07:57:30.829Z,4.45
2022-09-05T07:59:57.777Z,5.00
2022-09-05T08:02:19.437Z,4.90
2022-09-05T08:04:42.075Z,4.68
2022-09-05T08:07:50.035Z,4.40
2022-09-05T08:10:08.406Z,3.63
2022-09-05T08:13:22.838Z,4.50
2022-09-05T08:15:42.579Z,3.90
2022-09-05T08:18:42.821Z,3.53
2022-09-05T08:21:29.860Z,2.88
2022-09-05T08:24:09.142Z,3.17
2022-09-05T08:26:46.362Z,3.20
2022-09-05T08:29:27.142Z,2.78
2022-09-05T08:31:53.321Z,2.60
2022-09-05T08:34:44.106Z,2.70
2022-09-05T08:37:10.120Z,2.53
2022-09-05T08:39:34.596Z,2.50
2022-09-05T08:42:06.122Z,2.38
2022-09-05T08:46:41.710Z,2.28
2022-09-05T08:47:52.979Z,2.58
2022-09-05T08:50:43.716Z,2.33
2022-09-05T08:53:45.440Z,2.15
2022-09-05T08:56:20.660Z,2.58
2022-09-05T08:58:54.035Z,2.33
2022-09-05T09:02:37.441Z,2.40
2022-09-05T09:05:14.599Z,2.53
2022-09-05T09:07:52.522Z,2.53
2022-09-05T09:10:30.040Z,2.20
2022-09-05T09:13:19.094Z,2.17
2022-09-05T09:15:58.853Z,2.25
2022-09-05T09:18:21.434Z,1.80
2022-09-05T09:20:53.993Z,1.75
2022-09-05T09:23:51.171Z,1.95
2022-09-05T09:26:19.095Z,2.00
2022-09-05T09:28:52.532Z,1.90
2022-09-05T09:31:13.974Z,1.88
2022-09-05T09:33:46.301Z,1.90
2022-09-05T09:36:48.971Z,2.10
2022-09-05T09:39:47.821Z,1.90
2022-09-05T09:42:40.705Z,2.38
2022-09-05T09:45:31.440Z,1.90
2022-09-05T09:48:07.929Z,2.10
2022-09-05T09:51:08.522Z,1.90
2022-09-05T09:53:42.862Z,1.90
2022-09-05T09:56:16.251Z,2.03
2022-09-05T09:58:56.642Z,2.05
2022-09-05T10:01:50.482Z,2.30
2022-09-05T10:10:39.008Z,1.95
2022-09-05T10:10:53.339Z,1.90
2022-09-05T10:11:07.714Z,2.00
2022-09-05T10:13:57.748Z,1.88
2022-09-05T10:16:49.589Z,1.88
2022-09-05T10:20:11.550Z,2.08
2022-09-05T10:22:51.598Z,1.80
2022-09-05T10:25:19.985Z,1.75
2022-09-05T10:28:04.551Z,1.90
2022-09-05T10:32:58.075Z,1.50
2022-09-05T10:35:16.998Z,1.48
2022-09-05T10:36:24.578Z,1.58
2022-09-05T10:38:53.467Z,1.70
2022-09-05T10:41:22.151Z,1.33
2022-09-05T10:44:03.192Z,1.30
2022-09-05T10:47:24.677Z,1.45
2022-09-05T10:49:50.546Z,1.30
2022-09-05T10:52:30.613Z,1.38
2022-09-05T10:55:02.556Z,1.20
2022-09-05T10:57:41.621Z,1.15
2022-09-05T11:02:30.158Z,1.08
2022-09-05T11:03:30.156Z,1.23
2022-09-05T11:05:58.712Z,1.27
2022-09-05T11:08:33.199Z,1.50
2022-09-05T11:11:26.027Z,1.20
2022-09-05T11:13:57.417Z,1.30
2022-09-05T11:16:43.351Z,1.20
2022-09-05T11:19:11.694Z,1.15
2022-09-05T11:21:52.654Z,1.38
2022-09-05T11:24:43.138Z,1.20
2022-09-05T11:27:27.319Z,1.33
2022-09-05T11:29:57.210Z,1.25
2022-09-05T11:37:35.804Z,1.05
2022-09-05T11:39:50.726Z,1.20
2022-09-05T11:39:59.919Z,1.20
2022-09-05T11:41:48.716Z,1.00
2022-09-05T11:44:35.711Z,1.00
2022-09-05T11:47:28.241Z,1.00
2022-09-05T11:50:11.254Z,1.10
2022-09-05T11:52:55.092Z,1.10
2022-09-05T11:55:40.134Z,1.05
2022-09-05T11:58:43.144Z,1.23
2022-09-05T12:01:41.544Z,1.00
2022-09-05T12:04:21.849Z,1.08
2022-09-05T12:07:02.445Z,1.23
2022-09-05T12:09:46.727Z,1.30
2022-09-05T12:12:41.147Z,1.17
2022-09-05T12:15:11.551Z,1.20
2022-09-05T12:17:53.127Z,1.20
2022-09-05T12:20:53.057Z,1.17
2022-09-05T12:24:24.176Z,1.08
2022-09-05T12:27:36.927Z,1.10
2022-09-05T12:29:29.001Z,1.10
2022-09-05T12:32:50.430Z,0.90
2022-09-05T12:36:10.396Z,1.00
2022-09-05T12:40:54.043Z,0.90
2022-09-05T12:41:35.674Z,1.25
2022-09-05T12:44:38.151Z,1.17
2022-09-05T12:46:25.150Z,1.13
2022-09-05T12:48:56.852Z,1.10
2022-09-05T12:51:45.840Z,1.05
2022-09-05T12:54:27.864Z,1.20
2022-09-05T13:00:49.523Z,1.20
2022-09-05T13:03:13.668Z,1.17
2022-09-05T13:03:27.738Z,1.17
2022-09-05T13:06:04.849Z,1.25
2022-09-05T13:08:38.053Z,1.25
2022-09-05T13:14:48.857Z,1.30
2022-09-05T13:15:07.960Z,1.25
2022-09-05T13:16:39.736Z,1.13
2022-09-05T13:19:07.502Z,1.40
2022-09-05T13:21:30.984Z,1.30
2022-09-05T13:24:16.484Z,1.10
2022-09-05T13:26:47.643Z,1.23
2022-09-05T13:29:19.714Z,1.48
2022-09-05T13:37:55.563Z,1.17
2022-09-05T13:37:58.802Z,1.10
2022-09-05T13:38:03.245Z,1.10
2022-09-05T13:40:19.777Z,1.02
2022-09-05T13:42:45.301Z,1.30
2022-09-05T13:45:09.019Z,1.10
2022-09-05T13:47:54.387Z,1.20
2022-09-05T13:50:29.210Z,1.30
2022-09-05T13:53:16.666Z,1.02
2022-09-05T13:55:43.208Z,1.10
2022-09-05T13:58:13.786Z,1.23
2022-09-05T14:00:38.262Z,1.38
2022-09-05T14:03:39.101Z,1.20
2022-09-05T14:07:44.068Z,1.40
2022-09-05T14:10:31.172Z,1.40
2022-09-05T14:13:05.711Z,1.50
2022-09-05T14:15:52.370Z,1.50
2022-09-05T14:18:53.878Z,1.50
2022-09-05T14:21:15.731Z,1.65
2022-09-05T14:23:45.833Z,1.23
2022-09-05T14:26:17.726Z,1.45
2022-09-05T14:28:46.732Z,1.50
2022-09-05T14:37:07.065Z,1.42
2022-09-05T14:37:52.712Z,1.35
2022-09-05T14:38:00.978Z,1.40
2022-09-05T14:40:39.360Z,1.40
2022-09-05T14:43:15.157Z,1.52
2022-09-05T14:46:03.733Z,1.50
2022-09-05T14:48:46.587Z,1.45
2022-09-05T14:51:43.256Z,1.30
2022-09-05T15:00:55.096Z,1.50
2022-09-05T15:02:51.036Z,1.20
2022-09-05T15:03:02.013Z,1.27
2022-09-05T15:05:27.844Z,1.50
2022-09-05T15:07:58.621Z,1.55
2022-09-05T15:12:17.096Z,1.20
2022-09-05T15:13:06.484Z,1.27
2022-09-05T15:15:40.565Z,1.70
2022-09-05T15:18:31.517Z,1.60
2022-09-05T15:21:16.761Z,1.45
2022-09-05T15:24:24.311Z,1.30
2022-09-05T15:27:01.122Z,1.58
2022-09-05T15:29:25.838Z,1.30
2022-09-05T15:31:47.384Z,1.63
2022-09-05T15:34:26.284Z,2.65
2022-09-05T15:36:48.120Z,3.60
2022-09-05T15:39:24.583Z,1.30
2022-09-05T15:41:46.520Z,1.30
2022-09-05T15:44:21.304Z,1.40
2022-09-05T15:46:59.748Z,1.50
2022-09-05T15:49:42.968Z,1.50
2022-09-05T15:52:16.484Z,1.33
2022-09-05T15:54:49.502Z,1.60
2022-09-05T15:57:21.159Z,1.30
2022-09-05T15:59:48.965Z,1.20
2022-09-05T16:02:17.543Z,1.40
2022-09-05T16:10:27.220Z,1.50
2022-09-05T16:10:38.140Z,1.55
2022-09-05T16:10:40.973Z,1.30
2022-09-05T16:12:57.093Z,1.48
2022-09-05T16:18:42.661Z,1.30
2022-09-05T16:23:15.561Z,1.40
2022-09-05T16:23:32.256Z,1.50
2022-09-05T16:24:06.650Z,1.30
2022-09-05T16:26:31.967Z,1.25
2022-09-05T16:29:10.338Z,1.40
2022-09-05T16:31:45.268Z,1.20
2022-09-05T16:34:16.508Z,1.23
2022-09-05T16:36:57.950Z,1.40
2022-09-05T16:39:33.683Z,1.30
2022-09-05T16:42:02.309Z,1.20
2022-09-05T16:44:35.549Z,1.30
2022-09-05T16:47:29.762Z,1.30
2022-09-05T16:50:16.946Z,1.20
2022-09-05T16:53:34.629Z,1.40
2022-09-05T16:56:04.308Z,1.45
2022-09-05T16:58:38.720Z,1.52
2022-09-05T17:01:20.277Z,1.73
2022-09-05T17:03:56.037Z,1.85
2022-09-05T17:06:45.580Z,1.50
2022-09-05T17:09:20.504Z,2.10
2022-09-05T17:12:00.566Z,2.00
2022-09-05T17:14:25.336Z,1.70
2022-09-05T17:16:56.347Z,1.67
2022-09-05T17:19:22.843Z,1.67
2022-09-05T17:24:23.018Z,1.70
2022-09-05T17:29:31.261Z,1.70
2022-09-05T17:29:34.489Z,1.50
2022-09-05T17:31:49.041Z,1.90
2022-09-05T17:33:23.823Z,1.80
2022-09-05T17:35:48.087Z,1.60
2022-09-05T17:38:33.538Z,1.73
2022-09-05T17:41:17.002Z,1.77
2022-09-05T17:43:40.098Z,1.90
2022-09-05T17:46:26.102Z,2.00
2022-09-05T17:48:54.876Z,1.80
2022-09-05T17:51:28.837Z,1.60
2022-09-05T17:53:59.353Z,2.00
2022-09-05T17:56:32.402Z,1.88
2022-09-05T17:59:21.348Z,2.33
2022-09-05T18:02:02.959Z,1.80
2022-09-05T18:04:43.096Z,1.98
2022-09-05T18:07:27.079Z,2.00
2022-09-05T18:13:31.755Z,1.88
2022-09-05T18:15:35.021Z,1.80
2022-09-05T18:18:05.865Z,2.10
2022-09-05T18:20:45.643Z,2.10
2022-09-05T18:23:26.338Z,2.03
2022-09-05T18:26:14.304Z,1.85
2022-09-05T18:28:59.946Z,1.83
2022-09-05T18:31:41.475Z,1.92
2022-09-05T18:34:13.654Z,1.90
2022-09-05T18:36:35.255Z,2.10
2022-09-05T18:39:27.698Z,1.98
2022-09-05T18:42:33.924Z,1.88
2022-09-05T18:44:49.904Z,2.03
2022-09-05T18:47:33.267Z,2.00
2022-09-05T18:50:24.138Z,1.70
2022-09-05T18:52:47.267Z,1.52
2022-09-05T18:56:10.481Z,1.70
2022-09-05T18:58:11.405Z,1.65
2022-09-05T19:00:46.804Z,1.65
2022-09-05T19:03:18.988Z,2.10
2022-09-05T19:05:55.338Z,3.35
2022-09-05T19:08:48.076Z,2.88
2022-09-05T19:11:28.245Z,2.17
2022-09-05T19:14:16.219Z,1.98
2022-09-05T19:16:43.542Z,2.30
2022-09-05T19:19:16.440Z,2.20
2022-09-05T19:21:57.247Z,2.10
2022-09-05T19:24:45.687Z,2.28
2022-09-05T19:27:07.609Z,2.15
2022-09-05T19:35:57.131Z,2.03
2022-09-05T19:36:54.260Z,2.05
2022-09-05T19:37:06.991Z,1.77
2022-09-05T19:37:58.576Z,1.92
2022-09-05T19:47:26.850Z,2.22
2022-09-05T19:47:36.396Z,2.00
2022-09-05T19:47:37.699Z,2.20
2022-09-05T19:49:07.717Z,2.10
2022-09-05T19:51:29.302Z,2.22
2022-09-05T19:54:04.002Z,2.17
2022-09-05T19:56:46.149Z,2.03
2022-09-05T19:59:24.825Z,2.10
2022-09-05T20:01:47.508Z,2.20
2022-09-05T20:04:09.292Z,2.40
2022-09-05T20:06:31.302Z,2.15
2022-09-05T20:09:20.520Z,2.55
2022-09-05T20:11:57.837Z,2.28
2022-09-05T20:14:26.915Z,2.20
2022-09-05T20:16:50.575Z,2.45
2022-09-05T20:19:29.371Z,2.33
2022-09-05T20:21:54.952Z,2.10
2022-09-05T20:24:19.961Z,2.30
2022-09-05T20:26:41.724Z,2.38
2022-09-05T20:29:09.089Z,2.47
2022-09-05T20:31:33.683Z,2.28
2022-09-05T20:35:36.482Z,2.38
2022-09-05T20:43:15.900Z,2.50
2022-09-05T20:43:16.951Z,2.40
2022-09-05T20:43:30.695Z,2.47
2022-09-05T20:47:12.247Z,2.15
2022-09-05T20:54:04.875Z,2.53
2022-09-05T20:54:12.794Z,2.65
2022-09-05T20:54:31.044Z,2.70
2022-09-05T20:56:56.803Z,2.35
2022-09-05T20:59:25.038Z,2.40
2022-09-05T21:02:07.140Z,2.30
2022-09-05T21:04:34.200Z,2.70
2022-09-05T21:07:10.756Z,2.53
2022-09-05T21:09:32.351Z,2.58
2022-09-05T21:11:56.326Z,2.33
2022-09-05T21:14:22.563Z,2.38
2022-09-05T21:16:47.585Z,2.50
2022-09-05T21:19:41.532Z,2.55
2022-09-05T21:22:28.626Z,2.63
2022-09-05T21:25:14.917Z,2.42
2022-09-05T21:27:36.352Z,2.50
2022-09-05T21:30:30.648Z,2.60
2022-09-05T21:32:54.956Z,2.60
2022-09-05T21:35:34.230Z,2.88
2022-09-05T21:37:58.644Z,2.60
2022-09-05T21:40:21.279Z,2.47
2022-09-05T21:47:33.029Z,2.45
2022-09-05T21:47:48.296Z,2.40
2022-09-05T21:48:11.070Z,2.83
2022-09-05T21:50:37.667Z,2.80
2022-09-05T21:53:32.487Z,3.13
2022-09-05T22:03:20.730Z,2.70
2022-09-05T22:05:42.204Z,2.33
2022-09-05T22:08:06.116Z,2.53
2022-09-05T22:10:35.683Z,2.65
2022-09-05T22:13:09.192Z,2.78
2022-09-05T22:15:32.193Z,2.78
2022-09-05T22:17:58.381Z,2.90
2022-09-05T22:20:39.280Z,2.78
2022-09-05T22:23:01.527Z,2.60
2022-09-05T22:25:29.947Z,3.10
2022-09-05T22:27:51.379Z,2.85
2022-09-05T22:30:13.621Z,2.78
2022-09-05T22:32:35.627Z,2.78
2022-09-05T22:34:57.072Z,2.85
2022-09-05T22:37:18.695Z,2.90
2022-09-05T22:39:41.141Z,3.15
2022-09-05T22:42:02.677Z,2.85
2022-09-05T22:44:29.137Z,2.67
2022-09-05T22:46:53.001Z,3.17
2022-09-05T22:49:14.489Z,2.70
2022-09-05T22:51:35.931Z,3.05
2022-09-05T22:53:57.445Z,2.90
2022-09-05T22:56:36.837Z,2.90
2022-09-05T22:58:58.370Z,2.85
2022-09-05T23:01:19.902Z,3.08
2022-09-05T23:03:41.368Z,2.78
2022-09-05T23:06:10.403Z,3.30
2022-09-05T23:08:32.111Z,3.33
2022-09-05T23:10:53.616Z,3.00
2022-09-05T23:13:15.124Z,2.60
2022-09-05T23:15:37.648Z,3.08
2022-09-05T23:18:00.190Z,2.78
2022-09-05T23:20:22.380Z,2.60
2022-09-05T23:22:43.831Z,3.40
2022-09-05T23:25:05.646Z,3.47
2022-09-05T23:27:27.091Z,3.40
2022-09-05T23:29:48.547Z,2.78
2022-09-05T23:32:09.983Z,3.10
2022-09-05T23:34:33.174Z,3.42
2022-09-05T23:36:54.705Z,3.50
2022-09-05T23:39:16.245Z,3.20
2022-09-05T23:41:37.678Z,3.40
2022-09-05T23:43:59.187Z,3.03
2022-09-05T23:46:20.667Z,3.10
2022-09-05T23:48:42.165Z,3.60
2022-09-05T23:51:09.271Z,3.53
2022-09-05T23:53:30.773Z,4.07
2022-09-05T23:55:52.192Z,3.80
2022-09-05T23:58:14.279Z,3.42
